Huntsville (HSV/KHSV)

Map

Destinations

Information

Location
Huntsville, AL
Local Time
00:33 / 12:33 am
GMT Time
06:33 / 6:33 am
Gates
Unassigned
No FAA reported delays
METAR KHSV 220608Z 03004KT 8SM OVC010 14/14 A2989 RMK AO2 T01440139
TAF KHSV 220535Z 2206/2306 11005KT 6SM -RADZ OVC010 TEMPO 2206/2208 BKN008 FM220800 09003KT 3SM -DZ BR BKN005 OVC010 FM221600 11003KT 5SM -DZ BR SCT010 OVC020 FM222000 12010KT P6SM BKN025 FM230000 10003KT P6SM SCT025
  • No charts available